Time;durP1;ratioP1;P1;durP2;ratioP2;P2;SDS_P1;SDS_P2;PMS_P1;PMS_P2;Temp;Humidity;BMP_temperature;BMP_pressure;BME280_temperature;BME280_humidity;BME280_pressure;Samples;Min_cycle;Max_cycle;Signal;HPM_P1;HPM_P2
2022/04/14 00:00:29;;;;;;;18.07;14.70;;;17.50;99.90;;;17.54;49.14;101569.56;4797996;29;96958;-60
2022/04/14 00:02:58;;;;;;;16.03;13.23;;;17.40;99.90;;;17.52;56.46;101566.13;4781649;29;115335;-58
2022/04/14 00:05:24;;;;;;;28.00;19.10;;;17.40;99.90;;;17.48;53.77;101572.53;4816061;28;97014;-59
2022/04/14 00:07:49;;;;;;;23.87;17.40;;;17.30;99.90;;;17.46;52.25;101570.88;4807104;29;97403;-60
2022/04/14 00:10:15;;;;;;;25.20;18.00;;;17.30;99.90;;;17.41;53.24;101572.91;4808235;29;97113;-64
2022/04/14 00:12:43;;;;;;;20.90;17.20;;;17.20;99.90;;;17.41;51.14;101572.91;4810493;29;112393;-60
2022/04/14 00:15:11;;;;;;;19.03;16.20;;;17.20;99.90;;;17.42;52.14;101570.16;4810818;28;97377;-60
2022/04/14 00:17:37;;;;;;;22.33;17.00;;;17.20;99.90;;;17.38;51.83;101571.28;4806684;29;98363;-60
2022/04/14 00:20:07;;;;;;;18.77;14.80;;;17.20;99.90;;;17.38;51.64;101568.59;4811600;29;97022;-60
2022/04/14 00:22:33;;;;;;;16.30;12.20;;;17.20;99.90;;;17.37;48.85;101566.88;4812901;29;97573;-60
2022/04/14 00:24:59;;;;;;;20.23;16.43;;;17.20;99.90;;;17.38;48.79;101568.59;4812158;29;97371;-61
2022/04/14 00:27:25;;;;;;;16.57;12.90;;;17.20;99.90;;;17.35;49.42;101562.53;4805911;29;98513;-61
2022/04/14 00:29:51;;;;;;;24.97;18.17;;;17.20;99.90;;;17.36;53.12;101559.81;4813857;29;97215;-61
2022/04/14 00:32:17;;;;;;;19.07;15.70;;;17.20;99.90;;;17.35;49.72;101558.06;4810241;29;97050;-60
2022/04/14 00:34:43;;;;;;;24.33;17.77;;;17.20;99.90;;;17.35;51.69;101558.06;4812394;29;99234;-59
2022/04/14 00:37:10;;;;;;;22.27;18.63;;;17.20;99.90;;;17.34;53.04;101556.34;4812783;29;97166;-59
2022/04/14 00:39:37;;;;;;;23.97;18.53;;;17.20;99.90;;;17.32;53.22;101552.88;4807091;29;97011;-60
2022/04/14 00:42:11;;;;;;;22.77;18.40;;;17.10;99.90;;;17.34;53.09;101556.34;4813293;29;97093;-60
2022/04/14 00:44:37;;;;;;;23.63;19.33;;;17.10;99.90;;;17.35;52.29;101552.72;4808317;29;97061;-60
2022/04/14 00:47:04;;;;;;;23.90;18.67;;;17.20;99.90;;;17.36;49.56;101557.16;4811016;29;98603;-60
2022/04/14 00:49:30;;;;;;;22.37;16.63;;;17.20;99.90;;;17.36;50.20;101551.81;4799102;29;98353;-59
2022/04/14 00:52:00;;;;;;;10.57;9.37;;;17.20;99.90;;;17.36;50.01;101549.16;4796947;29;97739;-59
2022/04/14 00:54:26;;;;;;;26.27;19.03;;;17.20;99.90;;;17.33;51.15;101549.28;4796101;29;98586;-59
2022/04/14 00:56:52;;;;;;;20.03;16.13;;;17.10;99.90;;;17.32;49.51;101547.56;4799441;29;99196;-59
2022/04/14 00:59:18;;;;;;;21.03;18.13;;;17.10;99.90;;;17.30;52.08;101559.25;4795692;29;97445;-59
2022/04/14 01:01:44;;;;;;;9.93;8.33;;;17.10;99.90;;;17.31;49.28;101550.31;4795917;29;98623;-59
2022/04/14 01:04:12;;;;;;;24.73;18.97;;;17.10;99.90;;;17.33;48.35;101549.28;4802243;29;97341;-59
2022/04/14 01:06:38;;;;;;;5.13;4.63;;;17.20;99.90;;;17.35;48.07;101547.41;4792582;29;106862;-59
2022/04/14 01:09:16;;;;;;;24.37;19.10;;;17.20;99.90;;;17.36;52.20;101546.50;4799789;29;97068;-59
2022/04/14 01:11:51;;;;;;;22.47;18.33;;;17.20;99.90;;;17.36;48.43;101549.16;4793300;29;98756;-59
2022/04/14 01:14:32;;;;;;;24.57;18.90;;;17.20;99.90;;;17.42;50.82;101551.50;4794984;29;96852;-60
2022/04/14 01:17:03;;;;;;;22.90;18.23;;;17.20;99.90;;;17.41;48.40;101552.44;4819828;29;97799;-60
2022/04/14 01:19:29;;;;;;;19.70;16.50;;;17.30;99.90;;;17.44;47.74;101552.28;4821575;29;96921;-59
2022/04/14 01:22:24;;;;;;;14.97;12.10;;;17.30;98.50;;;17.50;47.59;101546.66;4823514;29;97809;-59
2022/04/14 01:24:57;;;;;;;6.10;5.20;;;17.40;98.00;;;17.51;48.15;101547.53;4823834;29;101610;-59
2022/04/14 01:27:24;;;;;;;20.63;17.03;;;17.40;99.40;;;17.52;49.12;101559.91;4821241;29;97005;-60
2022/04/14 01:29:53;;;;;;;11.93;8.83;;;17.40;99.90;;;17.52;48.55;101560.78;4823744;29;97098;-59
2022/04/14 01:32:20;;;;;;;14.60;10.70;;;17.40;99.90;;;17.51;48.71;101561.72;4830611;28;97036;-60
2022/04/14 01:34:46;;;;;;;14.60;12.13;;;17.40;99.90;;;17.51;48.98;101564.38;4823602;29;99465;-59
2022/04/14 01:37:12;;;;;;;20.10;17.23;;;17.40;99.90;;;17.51;49.13;101559.06;4828414;28;96786;-59
2022/04/14 01:39:39;;;;;;;23.73;18.60;;;17.30;99.90;;;17.50;49.27;101562.66;4821453;29;96721;-59
2022/04/14 01:42:05;;;;;;;24.83;19.47;;;17.30;99.90;;;17.48;48.86;101569.00;4825916;29;97122;-58
2022/04/14 01:44:31;;;;;;;21.10;18.50;;;17.30;99.90;;;17.48;48.24;101563.66;4819528;29;98003;-59
2022/04/14 01:46:57;;;;;;;13.67;11.90;;;17.30;99.90;;;17.48;48.43;101564.50;4822115;29;97559;-58
2022/04/14 01:49:23;;;;;;;22.63;16.63;;;17.30;99.90;;;17.48;49.08;101569.00;4820900;29;113819;-59
2022/04/14 01:51:49;;;;;;;9.70;8.33;;;17.30;99.90;;;17.46;48.59;101565.53;4821050;28;97329;-59
2022/04/14 01:54:15;;;;;;;23.07;17.90;;;17.30;99.90;;;17.45;50.53;101575.34;4822055;29;99188;-64
2022/04/14 01:56:45;;;;;;;19.93;15.23;;;17.30;99.90;;;17.44;49.93;101578.97;4817031;28;103428;-58
2022/04/14 01:59:12;;;;;;;18.97;16.20;;;17.20;99.90;;;17.41;48.91;101580.91;4824848;29;96932;-59
2022/04/14 02:01:37;;;;;;;17.60;13.40;;;17.20;99.90;;;17.41;48.22;101579.13;4818061;29;97509;-59
2022/04/14 02:04:05;;;;;;;13.83;11.77;;;17.20;98.30;;;17.43;50.36;101577.22;4823556;29;111523;-57
2022/04/14 02:06:31;;;;;;;4.33;3.50;;;17.30;99.90;;;17.45;48.34;101579.81;4815980;29;97536;-59
2022/04/14 02:08:57;;;;;;;4.63;3.93;;;17.30;99.90;;;17.45;48.35;101585.16;4824234;29;97478;-59
2022/04/14 02:11:23;;;;;;;20.17;14.73;;;17.30;99.80;;;17.44;50.00;101570.94;4815630;29;96954;-59
2022/04/14 02:13:49;;;;;;;18.17;14.53;;;17.40;99.90;;;17.42;50.24;101575.50;4825448;29;118468;-58
2022/04/14 02:16:15;;;;;;;18.50;14.63;;;17.30;99.90;;;17.37;49.26;101571.34;4822298;28;97296;-62
2022/04/14 02:18:41;;;;;;;16.70;14.10;;;17.20;99.90;;;17.35;48.78;101565.19;4822554;29;98024;-59
2022/04/14 02:21:07;;;;;;;16.73;13.67;;;17.10;99.90;;;17.33;48.74;101565.28;4821905;29;97089;-60
2022/04/14 02:23:32;;;;;;;18.17;14.97;;;17.10;99.90;;;17.32;49.64;101566.22;4821883;28;116165;-60
2022/04/14 02:25:58;;;;;;;15.60;12.27;;;17.10;99.90;;;17.33;48.52;101562.63;4827283;29;119139;-61
2022/04/14 02:28:24;;;;;;;4.10;3.47;;;17.10;99.90;;;17.33;48.37;101559.09;4821274;29;97143;-60
2022/04/14 02:30:50;;;;;;;10.23;7.20;;;17.10;99.90;;;17.33;48.87;101559.94;4822730;28;98831;-60
2022/04/14 02:33:16;;;;;;;11.73;9.53;;;17.10;99.90;;;17.30;49.44;101554.78;4821298;29;97482;-64
2022/04/14 02:35:42;;;;;;;19.17;15.33;;;17.10;99.90;;;17.29;49.69;101560.19;4826398;28;99843;-59
2022/04/14 02:38:08;;;;;;;17.97;15.10;;;17.00;99.90;;;17.25;49.30;101546.16;4825235;29;97234;-59
2022/04/14 02:40:34;;;;;;;20.33;14.83;;;17.00;99.90;;;17.22;48.84;101547.16;4824414;28;112954;-60
2022/04/14 02:43:00;;;;;;;20.17;15.90;;;17.00;99.90;;;17.23;48.46;101554.22;4823627;29;99057;-60
2022/04/14 02:45:27;;;;;;;9.13;7.07;;;17.00;99.90;;;17.26;48.06;101545.22;4822550;28;97385;-60
2022/04/14 02:47:53;;;;;;;4.47;3.47;;;17.10;99.50;;;17.28;48.49;101546.00;4823396;28;97200;-60
2022/04/14 02:50:21;;;;;;;20.20;15.67;;;17.10;99.90;;;17.28;48.95;101546.00;4817616;29;97255;-59
2022/04/14 02:52:51;;;;;;;20.17;17.13;;;17.10;99.90;;;17.31;48.14;101551.16;4829793;28;97004;-60
2022/04/14 02:55:18;;;;;;;23.27;18.40;;;17.10;99.40;;;17.33;49.25;101549.28;4815959;28;98159;-62
2022/04/14 02:57:44;;;;;;;23.90;17.30;;;17.20;99.90;;;17.34;48.35;101556.34;4821611;29;97229;-60
2022/04/14 03:00:11;;;;;;;6.07;4.73;;;17.20;99.70;;;17.36;48.57;101559.81;4820736;29;117200;-59
2022/04/14 03:02:42;;;;;;;4.97;3.70;;;17.20;99.90;;;17.38;48.07;101552.59;4808564;29;98436;-59
2022/04/14 03:05:14;;;;;;;14.17;11.67;;;17.20;99.90;;;17.36;48.64;101543.81;4818001;28;97940;-59
2022/04/14 03:07:40;;;;;;;20.43;16.10;;;17.20;99.90;;;17.34;48.74;101548.34;4818434;29;96646;-60
2022/04/14 03:10:07;;;;;;;12.57;10.43;;;17.10;99.90;;;17.33;48.42;101543.94;4824502;29;97582;-60
2022/04/14 03:12:46;;;;;;;16.03;12.83;;;17.10;99.90;;;17.33;48.41;101537.75;4823670;29;97320;-60
2022/04/14 03:15:16;;;;;;;4.67;4.20;;;17.10;99.90;;;17.30;48.73;101543.25;4823875;29;98118;-60
2022/04/14 03:17:43;;;;;;;7.83;6.13;;;17.10;99.90;;;17.29;49.19;101545.06;4822504;29;99334;-60
2022/04/14 03:20:10;;;;;;;19.87;16.60;;;17.10;99.90;;;17.28;49.50;101540.66;4822382;29;97814;-60
2022/04/14 03:22:36;;;;;;;9.77;7.80;;;17.00;99.90;;;17.26;48.33;101539.88;4820337;29;98115;-60
2022/04/14 03:25:08;;;;;;;3.90;2.57;;;17.00;99.90;;;17.28;47.90;101530.00;4823711;29;96969;-59
2022/04/14 03:27:34;;;;;;;2.97;2.67;;;17.10;98.10;;;17.33;47.86;101521.75;4819987;29;97091;-59
2022/04/14 03:30:00;;;;;;;19.70;14.00;;;17.20;97.50;;;17.39;48.36;101522.31;4823904;29;96991;-59
2022/04/14 03:32:26;;;;;;;19.70;15.63;;;17.30;99.80;;;17.38;50.47;101525.06;4820861;28;97885;-59
2022/04/14 03:34:53;;;;;;;21.73;18.63;;;17.30;99.90;;;17.30;53.71;101522.78;4821485;29;122076;-59
2022/04/14 03:37:19;;;;;;;24.77;19.13;;;17.10;99.90;;;17.25;52.83;101535.50;4820687;28;107256;-59
2022/04/14 03:39:45;;;;;;;26.10;19.37;;;17.00;99.90;;;17.14;49.42;101545.81;4824250;29;97105;-59
2022/04/14 03:42:11;;;;;;;22.43;16.73;;;16.90;99.90;;;17.18;48.55;101555.38;4822327;29;126243;-57
2022/04/14 03:44:36;;;;;;;21.37;15.83;;;16.90;99.40;;;17.20;49.29;101553.50;4820161;28;97856;-59
2022/04/14 03:47:02;;;;;;;22.20;17.80;;;17.00;99.90;;;17.21;48.25;101549.88;4829461;29;108110;-60
2022/04/14 03:49:28;;;;;;;22.33;18.63;;;17.00;99.20;;;17.25;48.65;101559.47;4824025;29;97314;-59
2022/04/14 03:51:55;;;;;;;24.90;20.33;;;17.10;99.30;;;17.28;49.98;101561.13;4826110;29;97006;-60
2022/04/14 03:54:21;;;;;;;24.63;20.27;;;17.10;99.90;;;17.29;52.73;101563.72;4820965;29;99507;-59
2022/04/14 03:56:48;;;;;;;27.33;20.90;;;17.10;99.90;;;17.28;49.53;101559.31;4824879;29;96900;-59
2022/04/14 03:59:15;;;;;;;24.97;20.07;;;17.20;99.90;;;17.28;48.64;101555.78;4825881;29;97191;-59
2022/04/14 04:01:41;;;;;;;15.90;13.30;;;17.10;99.90;;;17.28;49.48;101555.78;4821594;29;101783;-59
2022/04/14 04:04:07;;;;;;;19.07;15.83;;;17.10;99.90;;;17.25;49.23;101556.81;4825779;29;125810;-59
2022/04/14 04:06:33;;;;;;;24.13;19.20;;;17.10;99.90;;;17.21;50.85;101560.53;4822044;28;97579;-59
2022/04/14 04:08:58;;;;;;;12.10;10.17;;;17.00;99.90;;;17.17;49.81;101554.50;4827867;29;98881;-58
2022/04/14 04:11:24;;;;;;;5.20;4.20;;;16.90;99.90;;;17.17;48.19;101556.31;4826687;29;106358;-59
2022/04/14 04:13:50;;;;;;;7.83;6.43;;;16.90;99.70;;;17.17;48.50;101558.97;4829561;28;126279;-59
2022/04/14 04:16:16;;;;;;;25.30;20.50;;;17.00;99.90;;;17.16;53.70;101563.44;4819681;28;118264;-62
2022/04/14 04:18:41;;;;;;;27.87;21.43;;;17.00;99.90;;;17.16;49.43;101565.25;4825346;29;99348;-61
2022/04/14 04:21:08;;;;;;;14.47;12.07;;;16.90;99.90;;;17.17;49.35;101577.66;4828286;29;97761;-60
2022/04/14 04:23:34;;;;;;;26.23;21.97;;;17.00;99.90;;;17.15;50.05;101576.84;4825891;28;96985;-61
2022/04/14 04:26:00;;;;;;;27.13;20.90;;;16.90;99.90;;;17.16;49.08;101584.78;4826850;29;116939;-60
2022/04/14 04:28:30;;;;;;;19.77;15.03;;;16.90;99.90;;;17.17;48.54;101581.16;4825825;28;114185;-60
2022/04/14 04:30:56;;;;;;;28.20;20.57;;;17.00;99.00;;;17.20;48.89;101585.47;4817969;29;98618;-60
2022/04/14 04:33:22;;;;;;;27.40;22.67;;;17.00;99.90;;;17.20;50.36;101585.47;4831621;28;98214;-60
2022/04/14 04:35:50;;;;;;;14.23;11.83;;;17.00;99.90;;;17.15;49.38;101593.72;4822685;28;96702;-60
2022/04/14 04:38:16;;;;;;;28.57;22.53;;;16.90;99.90;;;17.13;49.67;101592.06;4835079;28;99848;-64
2022/04/14 04:40:42;;;;;;;10.27;8.80;;;16.90;99.90;;;17.11;49.23;101591.28;4823427;29;126663;-60
2022/04/14 04:43:09;;;;;;;25.80;20.07;;;16.80;99.90;;;17.11;48.97;101588.63;4824668;29;103605;-60
2022/04/14 04:45:35;;;;;;;28.00;22.80;;;16.90;99.90;;;17.14;50.07;101596.47;4823828;28;97214;-61
2022/04/14 04:48:04;;;;;;;25.73;20.10;;;16.90;99.90;;;17.15;49.60;101607.03;4835555;28;96949;-60
2022/04/14 04:50:30;;;;;;;25.27;19.43;;;16.90;99.90;;;17.15;50.42;101599.03;4817841;29;99234;-60
2022/04/14 04:52:56;;;;;;;21.30;17.07;;;16.90;99.90;;;17.15;49.71;101603.50;4827958;29;97579;-59
2022/04/14 04:55:22;;;;;;;30.67;24.77;;;16.90;99.90;;;17.12;49.47;101603.66;4821876;28;97468;-60
2022/04/14 04:57:47;;;;;;;13.07;10.07;;;16.90;99.90;;;17.10;49.33;101605.53;4826592;28;96981;-60
2022/04/14 05:00:14;;;;;;;9.70;7.97;;;16.80;99.90;;;17.11;48.68;101601.94;4825858;28;98707;-59
2022/04/14 05:02:40;;;;;;;27.37;22.20;;;16.80;99.90;;;17.11;49.72;101596.59;4821134;29;104481;-61
2022/04/14 05:05:06;;;;;;;29.30;24.00;;;16.90;99.90;;;17.11;49.94;101609.94;4825558;29;97858;-61
2022/04/14 05:07:32;;;;;;;5.20;4.20;;;16.80;99.90;;;17.13;49.01;101605.41;4823049;29;96908;-59
2022/04/14 05:09:58;;;;;;;27.83;22.57;;;16.90;99.90;;;17.14;49.51;101601.78;4824215;29;122121;-61
2022/04/14 05:12:24;;;;;;;33.10;24.63;;;16.90;99.90;;;17.11;50.75;101620.59;4822820;29;97178;-61
2022/04/14 05:14:49;;;;;;;31.60;24.70;;;16.80;99.90;;;17.13;50.04;101627.59;4825227;29;111590;-61
2022/04/14 05:17:15;;;;;;;33.27;26.17;;;16.80;99.90;;;17.13;49.92;101624.06;4826537;29;98787;-66
2022/04/14 05:19:41;;;;;;;25.67;18.60;;;16.80;99.90;;;17.10;49.51;101611.75;4822068;29;124989;-59
2022/04/14 05:22:07;;;;;;;7.13;5.70;;;16.80;99.90;;;17.12;49.30;101617.00;4827247;28;115294;-61
2022/04/14 05:24:33;;;;;;;29.23;24.60;;;16.90;99.90;;;17.12;49.39;101619.66;4822097;29;112712;-61
2022/04/14 05:26:59;;;;;;;17.73;14.57;;;16.90;99.90;;;17.13;49.36;101611.59;4827452;29;97271;-59
2022/04/14 05:29:25;;;;;;;21.23;17.73;;;16.90;99.90;;;17.11;50.14;101612.59;4821555;28;114731;-58
2022/04/14 05:31:51;;;;;;;28.83;24.07;;;16.90;99.90;;;17.09;49.68;101614.47;4824389;29;96992;-61
2022/04/14 05:34:16;;;;;;;28.83;22.33;;;16.80;99.90;;;17.07;50.50;101611.00;4823166;29;97255;-60
2022/04/14 05:36:42;;;;;;;32.07;25.40;;;16.80;99.90;;;17.02;52.85;101623.69;4824008;28;98309;-56
2022/04/14 05:39:08;;;;;;;32.73;25.63;;;16.70;99.90;;;16.99;52.22;101629.19;4825572;29;97363;-57
2022/04/14 05:41:34;;;;;;;9.77;7.93;;;16.60;99.90;;;16.98;50.23;101632.78;4822239;29;118047;-57
2022/04/14 05:44:00;;;;;;;18.73;14.07;;;16.70;99.90;;;16.98;50.51;101627.44;4832042;28;97106;-59
2022/04/14 05:46:25;;;;;;;32.77;23.83;;;16.70;99.90;;;16.95;51.92;101640.00;4820993;29;108977;-59
2022/04/14 05:48:51;;;;;;;34.27;28.00;;;16.70;99.90;;;16.95;50.51;101650.66;4824695;29;115135;-60
2022/04/14 05:51:20;;;;;;;36.33;28.70;;;16.70;99.90;;;16.95;51.07;101645.31;4822293;29;97304;-60
2022/04/14 05:53:49;;;;;;;27.27;21.43;;;16.70;99.90;;;16.98;50.19;101651.44;4830129;28;97622;-59
2022/04/14 05:56:16;;;;;;;17.83;14.13;;;16.70;99.90;;;16.99;49.57;101639.84;4822173;29;98464;-62
2022/04/14 05:58:43;;;;;;;11.40;10.20;;;16.80;99.90;;;17.02;49.10;101637.03;4823374;28;101802;-58
2022/04/14 06:01:09;;;;;;;37.63;29.27;;;16.80;99.90;;;17.01;52.31;101638.81;4825571;28;97574;-59
2022/04/14 06:03:34;;;;;;;38.13;30.43;;;16.80;99.90;;;17.03;55.11;101644.06;4817971;29;99817;-60
2022/04/14 06:06:00;;;;;;;6.20;5.60;;;16.80;99.90;;;17.03;49.46;101636.09;4822377;29;96753;-60
2022/04/14 06:08:26;;;;;;;12.23;9.97;;;16.80;99.90;;;17.04;49.91;101635.13;4819170;28;97259;-57
2022/04/14 06:10:52;;;;;;;26.40;21.60;;;16.80;99.90;;;17.04;49.79;101640.47;4822380;29;97472;-60
2022/04/14 06:13:19;;;;;;;13.27;11.13;;;16.80;99.90;;;17.02;49.87;101629.88;4802980;28;116896;-61
2022/04/14 06:15:49;;;;;;;38.97;32.03;;;16.80;99.90;;;17.03;51.77;101646.75;4780250;29;120934;-60
2022/04/14 06:18:14;;;;;;;42.30;34.57;;;16.80;99.90;;;16.99;55.84;101640.69;4802022;29;99270;-58
2022/04/14 06:20:40;;;;;;;40.80;32.80;;;16.70;99.90;;;16.98;51.17;101643.44;4816438;29;113046;-56
2022/04/14 06:23:07;;;;;;;43.53;34.20;;;16.70;99.90;;;16.95;55.48;101652.44;4825398;29;101626;-58
2022/04/14 06:25:33;;;;;;;40.50;32.60;;;16.70;99.90;;;16.93;52.93;101647.19;4820160;29;97084;-61
2022/04/14 06:27:58;;;;;;;43.37;34.53;;;16.70;99.90;;;16.95;50.09;101645.31;4822890;28;97471;-60
2022/04/14 06:30:26;;;;;;;44.37;33.63;;;16.70;99.90;;;16.95;49.89;101650.66;4804151;29;111578;-59
2022/04/14 06:33:04;;;;;;;43.80;34.97;;;16.70;99.90;;;16.97;52.51;101652.38;4804068;28;118041;-57
2022/04/14 06:35:30;;;;;;;38.83;30.90;;;16.70;99.90;;;16.97;50.72;101663.91;4813623;28;97326;-60
2022/04/14 06:37:57;;;;;;;35.30;27.70;;;16.70;99.90;;;17.00;50.01;101662.88;4824073;29;97411;-59
2022/04/14 06:40:23;;;;;;;47.27;36.27;;;16.80;99.90;;;16.99;51.94;101666.50;4822633;29;99071;-60
2022/04/14 06:42:49;;;;;;;39.27;30.13;;;16.70;99.90;;;16.97;52.10;101666.56;4825225;29;96638;-60
2022/04/14 06:45:19;;;;;;;40.70;32.00;;;16.70;99.90;;;16.99;51.72;101666.50;4828721;28;108118;-66
2022/04/14 06:47:45;;;;;;;41.23;30.67;;;16.70;99.90;;;17.00;50.12;101662.88;4819952;28;102089;-58
2022/04/14 06:50:11;;;;;;;45.60;33.33;;;16.70;99.90;;;17.02;50.80;101667.19;4826499;28;98480;-59
2022/04/14 06:52:38;;;;;;;48.93;36.17;;;16.80;99.90;;;17.06;50.01;101678.59;4820091;28;96786;-60
2022/04/14 06:55:06;;;;;;;40.20;31.47;;;16.80;99.90;;;17.09;49.93;101683.78;4821400;29;96914;-60
2022/04/14 06:57:32;;;;;;;46.90;35.27;;;16.90;99.90;;;17.13;50.02;101680.91;4820798;28;97647;-60
2022/04/14 06:59:58;;;;;;;45.27;35.80;;;17.00;99.90;;;17.18;50.19;101684.19;4823704;29;112559;-60
2022/04/14 07:02:23;;;;;;;46.43;35.70;;;17.00;99.90;;;17.20;52.67;101687.66;4824286;28;119497;-59
2022/04/14 07:04:49;;;;;;;9.53;7.90;;;17.00;99.90;;;17.22;49.31;101685.81;4815032;29;97038;-60
2022/04/14 07:07:15;;;;;;;5.83;5.30;;;17.10;99.90;;;17.25;49.09;101685.66;4816014;29;120217;-64
2022/04/14 07:09:41;;;;;;;22.17;18.17;;;17.10;99.90;;;17.29;51.29;101686.38;4824441;28;101195;-59
2022/04/14 07:12:08;;;;;;;6.60;5.93;;;17.20;99.90;;;17.32;49.10;101688.03;4824602;29;97064;-59
2022/04/14 07:14:34;;;;;;;46.83;37.10;;;17.20;99.90;;;17.33;53.90;101690.63;4820604;28;97374;-60
2022/04/14 07:17:01;;;;;;;8.00;6.37;;;17.20;99.90;;;17.35;48.72;101680.75;4823252;28;96930;-59
2022/04/14 07:19:27;;;;;;;39.70;32.03;;;17.20;99.40;;;17.39;48.85;101679.69;4817972;28;96765;-57
2022/04/14 07:21:53;;;;;;;48.83;36.47;;;17.30;99.20;;;17.41;49.49;101683.13;4821642;29;97458;-60
2022/04/14 07:24:19;;;;;;;45.83;36.50;;;17.40;99.90;;;17.42;54.15;101684.00;4820077;29;97039;-60
2022/04/14 07:26:46;;;;;;;42.87;33.73;;;17.40;99.90;;;17.43;52.24;101683.91;4824504;29;101378;-60
2022/04/14 07:29:12;;;;;;;53.97;37.97;;;17.40;99.90;;;17.42;58.99;101681.31;4828739;29;97476;-59
2022/04/14 07:31:40;;;;;;;52.50;39.00;;;17.30;99.90;;;17.34;60.81;101679.00;4823072;28;108712;-59
2022/04/14 07:34:06;;;;;;;55.17;39.67;;;17.30;99.90;;;17.28;58.03;101689.97;4824131;28;99931;-60
2022/04/14 07:36:32;;;;;;;52.47;39.87;;;17.10;99.90;;;17.25;56.20;101690.13;4820229;29;96826;-59
2022/04/14 07:38:58;;;;;;;53.10;39.67;;;17.10;99.90;;;17.22;55.84;101695.63;4826017;28;125176;-57
2022/04/14 07:41:26;;;;;;;50.83;39.60;;;17.10;99.90;;;17.21;56.61;101699.19;4818661;29;119929;-60
2022/04/14 07:43:56;;;;;;;40.20;29.87;;;17.00;99.90;;;17.23;49.71;101703.53;4829518;28;97033;-57
2022/04/14 07:46:22;;;;;;;34.50;26.97;;;17.10;99.90;;;17.28;50.76;101700.66;4801529;29;99123;-58
2022/04/14 07:48:48;;;;;;;52.03;37.53;;;17.20;99.90;;;17.31;52.15;101705.81;4823480;29;97314;-57
2022/04/14 07:51:14;;;;;;;51.77;38.70;;;17.20;99.90;;;17.35;50.38;101702.06;4821406;29;96840;-59
2022/04/14 07:53:40;;;;;;;53.87;40.53;;;17.30;99.90;;;17.33;59.26;101708.41;4821045;28;97410;-59
2022/04/14 07:56:07;;;;;;;51.43;40.37;;;17.20;99.90;;;17.30;58.79;101712.09;4819929;29;98963;-58
2022/04/14 07:58:34;;;;;;;51.17;38.67;;;17.20;99.90;;;17.31;51.30;101705.81;4815099;29;97381;-57
2022/04/14 08:01:00;;;;;;;50.33;38.50;;;17.20;99.90;;;17.31;54.13;101711.16;4820623;28;97089;-59
2022/04/14 08:03:26;;;;;;;51.23;37.30;;;17.20;99.90;;;17.31;51.87;101711.16;4816390;29;96653;-59
2022/04/14 08:05:52;;;;;;;43.30;32.83;;;17.20;99.90;;;17.34;49.04;101703.00;4823798;29;115974;-58
2022/04/14 08:08:20;;;;;;;46.07;36.37;;;17.30;99.70;;;17.39;57.38;101709.00;4819833;29;122943;-61
2022/04/14 08:10:48;;;;;;;53.17;38.13;;;17.40;99.90;;;17.39;53.62;101714.34;4821126;29;102360;-56
2022/04/14 08:13:16;;;;;;;50.73;36.00;;;17.30;99.90;;;17.38;59.00;101711.75;4825109;29;97069;-59
2022/04/14 08:15:44;;;;;;;47.20;36.40;;;17.30;99.90;;;17.36;57.24;101708.28;4822241;28;102346;-58
2022/04/14 08:18:10;;;;;;;42.50;33.70;;;17.30;99.90;;;17.33;58.53;101714.63;4817310;29;98787;-58
2022/04/14 08:20:39;;;;;;;46.50;34.33;;;17.20;99.90;;;17.33;58.61;101716.41;4810611;29;97887;-58
2022/04/14 08:23:12;;;;;;;45.73;35.50;;;17.20;99.90;;;17.28;55.89;101711.31;4818336;29;97356;-59
2022/04/14 08:25:41;;;;;;;43.80;35.20;;;17.10;99.90;;;17.30;55.26;101717.44;4812670;29;97414;-57
2022/04/14 08:28:07;;;;;;;48.37;35.10;;;17.20;99.90;;;17.34;51.66;101721.69;4815691;28;97840;-59
2022/04/14 08:30:36;;;;;;;44.40;35.00;;;17.20;99.90;;;17.37;50.43;101716.22;4813025;29;97136;-56
2022/04/14 08:33:07;;;;;;;34.33;26.63;;;17.30;99.90;;;17.43;49.13;101723.06;4817046;29;97324;-59
2022/04/14 08:35:34;;;;;;;39.97;32.57;;;17.40;99.30;;;17.50;49.87;101722.72;4813164;29;97734;-56
2022/04/14 08:38:04;;;;;;;47.67;37.50;;;17.50;99.40;;;17.50;57.38;101733.38;4816048;29;97055;-58
2022/04/14 08:40:35;;;;;;;55.37;38.40;;;17.50;99.90;;;17.48;55.89;101724.56;4816653;29;97367;-57
2022/04/14 08:43:09;;;;;;;10.73;9.23;;;17.40;99.90;;;17.51;49.29;101724.44;4820420;29;97108;-56
2022/04/14 08:45:48;;;;;;;53.17;36.93;;;17.50;99.90;;;17.58;53.88;101725.00;4815495;29;100140;-59
2022/04/14 08:48:15;;;;;;;42.43;33.30;;;17.60;99.90;;;17.62;50.80;101723.03;4828923;28;96965;-59
2022/04/14 08:50:44;;;;;;;36.27;27.20;;;17.60;99.90;;;17.64;55.58;101718.50;4816504;29;97274;-59
2022/04/14 08:53:10;;;;;;;47.80;36.13;;;17.60;99.90;;;17.66;54.59;101716.63;4829117;28;101167;-59
2022/04/14 08:55:43;;;;;;;34.33;27.27;;;17.70;99.90;;;17.70;49.29;101718.25;4816075;29;97572;-59
2022/04/14 08:58:18;;;;;;;11.23;8.67;;;17.70;99.90;;;17.72;48.83;101716.34;4817768;29;97697;-58
2022/04/14 09:00:45;;;;;;;36.33;27.63;;;17.70;98.90;;;17.74;51.21;101719.81;4815387;29;97376;-58
2022/04/14 09:03:13;;;;;;;31.97;25.90;;;17.80;99.90;;;17.75;51.52;101716.19;4818352;29;97057;-58
2022/04/14 09:05:39;;;;;;;42.83;32.93;;;17.80;99.90;;;17.79;49.17;101717.78;4816561;29;97174;-59
2022/04/14 09:08:07;;;;;;;46.63;35.00;;;17.80;98.80;;;17.83;56.45;101714.91;4819123;29;98103;-59
2022/04/14 09:10:32;;;;;;;51.73;36.60;;;17.90;99.90;;;17.76;58.23;101723.25;4815528;29;97747;-58
2022/04/14 09:12:59;;;;;;;49.10;34.97;;;17.80;99.90;;;17.74;58.66;101722.47;4820804;29;97728;-59
2022/04/14 09:15:25;;;;;;;41.83;32.10;;;17.70;99.90;;;17.73;55.86;101721.63;4814138;29;97346;-59
2022/04/14 09:17:51;;;;;;;41.20;33.87;;;17.70;99.90;;;17.76;51.07;101712.59;4833620;28;97040;-58
2022/04/14 09:20:38;;;;;;;16.50;13.63;;;17.80;99.90;;;17.83;50.43;101724.72;4815464;29;106630;-60
2022/04/14 09:23:21;;;;;;;11.07;9.10;;;17.90;99.90;;;17.86;48.66;101718.34;4819127;29;96911;-59
2022/04/14 09:26:14;;;;;;;42.70;34.07;;;17.90;98.70;;;17.90;57.63;101726.13;4814672;29;101063;-59
2022/04/14 09:28:42;;;;;;;28.97;23.30;;;17.90;99.90;;;17.71;52.82;101717.31;4804996;29;97801;-53
2022/04/14 09:31:12;;;;;;;47.00;36.73;;;17.90;99.90;;;17.62;57.23;101725.69;4818126;29;96868;-60
2022/04/14 09:33:46;;;;;;;46.50;36.33;;;17.70;99.90;;;17.67;52.53;101721.03;4814382;29;96942;-59
2022/04/14 09:36:16;;;;;;;43.87;34.53;;;17.70;99.90;;;17.71;51.41;101714.63;4812585;29;97827;-59
2022/04/14 09:38:57;;;;;;;21.10;12.33;;;17.80;99.90;;;17.79;49.40;101707.09;4811992;29;101226;-59
2022/04/14 09:41:41;;;;;;;45.17;35.03;;;17.80;99.10;;;17.85;51.73;101706.81;4812905;29;96886;-58
2022/04/14 09:44:13;;;;;;;41.13;31.70;;;17.90;99.90;;;17.87;56.07;101704.94;4817947;29;97038;-58
2022/04/14 09:46:47;;;;;;;42.73;33.40;;;18.00;99.90;;;17.88;57.17;101711.13;4813895;29;97385;-59
2022/04/14 09:49:15;;;;;;;35.40;25.30;;;17.90;99.90;;;17.88;51.02;101709.31;4817370;29;98215;-59
2022/04/14 09:51:44;;;;;;;27.47;22.77;;;18.00;99.90;;;17.91;50.87;101711.84;4812241;29;99088;-59
2022/04/14 09:54:15;;;;;;;31.33;27.27;;;18.00;99.90;;;17.85;54.09;101712.16;4828723;28;98853;-59
2022/04/14 09:56:54;;;;;;;37.23;28.43;;;18.00;99.90;;;17.88;55.23;101703.13;4811803;29;101668;-59
2022/04/14 09:59:28;;;;;;;26.87;19.90;;;17.90;99.90;;;17.90;51.21;101699.44;4814735;29;97306;-59
2022/04/14 10:02:18;;;;;;;29.10;22.03;;;17.90;99.90;;;17.95;50.66;101685.88;4816612;29;97504;-59